createdAt,value
2023-03-30T00:00:28.849Z,95412.34
2023-03-30T00:02:58.799Z,95413.41
2023-03-30T00:05:28.262Z,95409.66
2023-03-30T00:07:59.217Z,95409.38
2023-03-30T00:10:29.198Z,95401.56
2023-03-30T00:12:58.657Z,95392.59
2023-03-30T00:15:28.174Z,95396.34
2023-03-30T00:17:57.640Z,95384.38
2023-03-30T00:20:27.173Z,95383.47
2023-03-30T00:22:56.648Z,95378.00
2023-03-30T00:25:27.721Z,95364.78
2023-03-30T00:27:57.115Z,95365.34
2023-03-30T00:30:26.791Z,95363.19
2023-03-30T00:32:56.438Z,95362.97
2023-03-30T00:35:26.499Z,95368.25
2023-03-30T00:37:55.864Z,95357.38
2023-03-30T00:40:27.091Z,95350.09
2023-03-30T00:43:01.086Z,95352.34
2023-03-30T00:45:34.598Z,95343.91
2023-03-30T00:48:10.172Z,95349.22
2023-03-30T00:50:46.617Z,95348.94
2023-03-30T00:53:23.193Z,95352.16
2023-03-30T00:55:56.154Z,95348.94
2023-03-30T00:58:27.139Z,95339.25
2023-03-30T01:00:58.178Z,95345.00
2023-03-30T01:03:33.606Z,95346.41
2023-03-30T01:06:07.427Z,95348.03
2023-03-30T01:08:38.445Z,95348.41
2023-03-30T01:11:09.413Z,95346.56
2023-03-30T01:13:44.360Z,95347.38
2023-03-30T01:16:29.773Z,95340.44
2023-03-30T01:19:24.500Z,95344.47
2023-03-30T01:22:50.093Z,95335.31
2023-03-30T01:25:56.367Z,95321.81
2023-03-30T01:28:46.832Z,95320.19
2023-03-30T01:32:02.449Z,95322.84
2023-03-30T01:34:51.668Z,95328.22
2023-03-30T01:38:09.440Z,95337.69
2023-03-30T01:40:44.466Z,95331.75
2023-03-30T01:43:19.637Z,95342.47
2023-03-30T01:45:57.001Z,95347.59
2023-03-30T01:48:35.766Z,95350.03
2023-03-30T01:51:11.566Z,95351.09
2023-03-30T01:53:51.404Z,95346.25
2023-03-30T01:56:29.233Z,95352.34
2023-03-30T01:59:06.911Z,95355.59
2023-03-30T02:01:41.528Z,95343.13
2023-03-30T02:04:13.237Z,95346.25
2023-03-30T02:06:51.211Z,95336.94
2023-03-30T02:09:25.691Z,95342.81
2023-03-30T02:11:57.988Z,95342.72
2023-03-30T02:14:33.603Z,95340.16
2023-03-30T02:17:09.284Z,95343.66
2023-03-30T02:19:38.831Z,95348.00
2023-03-30T02:22:08.688Z,95371.44
2023-03-30T02:24:38.454Z,95374.75
2023-03-30T02:27:09.195Z,95380.38
2023-03-30T02:29:44.078Z,95378.16
2023-03-30T02:32:20.408Z,95381.06
2023-03-30T02:35:19.855Z,95386.44
2023-03-30T02:38:25.773Z,95380.94
2023-03-30T02:41:09.974Z,95388.19
2023-03-30T02:43:57.210Z,95396.66
2023-03-30T02:47:01.611Z,95394.81
2023-03-30T02:49:58.995Z,95390.22
2023-03-30T02:52:47.957Z,95391.31
2023-03-30T02:55:29.139Z,95403.16
2023-03-30T02:58:18.779Z,95392.69
2023-03-30T03:01:17.036Z,95373.78
2023-03-30T03:04:10.063Z,95354.50
2023-03-30T03:06:48.507Z,95348.72
2023-03-30T03:09:19.011Z,95354.22
2023-03-30T03:11:48.512Z,95362.84
2023-03-30T03:14:18.614Z,95350.25
2023-03-30T03:16:50.446Z,95356.25
2023-03-30T03:19:21.460Z,95360.06
2023-03-30T03:21:52.745Z,95374.59
2023-03-30T03:24:23.210Z,95385.91
2023-03-30T03:27:11.700Z,95406.88
2023-03-30T03:29:57.657Z,95416.00
2023-03-30T03:32:29.021Z,95421.19
2023-03-30T03:34:58.475Z,95423.69
2023-03-30T03:37:28.320Z,95427.88
2023-03-30T03:39:57.834Z,95446.78
2023-03-30T03:42:27.853Z,95442.00
2023-03-30T03:45:12.577Z,95438.00
2023-03-30T03:47:55.679Z,95436.97
2023-03-30T03:50:39.969Z,95433.78
2023-03-30T03:53:09.820Z,95442.13
2023-03-30T03:55:39.943Z,95456.66
2023-03-30T03:58:09.525Z,95456.16
2023-03-30T04:00:39.143Z,95457.78
2023-03-30T04:03:10.255Z,95461.81
2023-03-30T04:05:41.861Z,95459.41
2023-03-30T04:08:11.968Z,95465.31
2023-03-30T04:10:43.103Z,95464.78
2023-03-30T04:13:27.793Z,95457.78
2023-03-30T04:16:11.610Z,95464.53
2023-03-30T04:19:05.660Z,95464.81
2023-03-30T04:21:51.044Z,95460.75
2023-03-30T04:24:53.866Z,95460.22
2023-03-30T04:27:42.832Z,95451.06
2023-03-30T04:30:23.428Z,95457.28
2023-03-30T04:33:24.907Z,95451.63
2023-03-30T04:36:03.553Z,95458.88
2023-03-30T04:38:59.763Z,95465.06
2023-03-30T04:41:54.127Z,95454.28
2023-03-30T04:44:31.070Z,95449.47
2023-03-30T04:47:28.854Z,95454.31
2023-03-30T04:50:27.595Z,95445.16
2023-03-30T04:53:19.430Z,95443.81
2023-03-30T04:56:12.459Z,95436.81
2023-03-30T04:58:49.280Z,95434.09
2023-03-30T05:01:37.054Z,95423.91
2023-03-30T05:04:31.640Z,95426.03
2023-03-30T05:07:13.286Z,95421.72
2023-03-30T05:09:53.627Z,95412.88
2023-03-30T05:12:41.801Z,95405.09
2023-03-30T05:15:34.183Z,95400.78
2023-03-30T05:18:39.831Z,95386.81
2023-03-30T05:21:20.583Z,95383.31
2023-03-30T05:24:14.534Z,95377.38
2023-03-30T05:27:02.358Z,95385.72
2023-03-30T05:29:45.997Z,95380.63
2023-03-30T05:32:41.463Z,95363.13
2023-03-30T05:35:29.656Z,95353.72
2023-03-30T05:38:08.425Z,95348.34
2023-03-30T05:40:52.973Z,95336.53
2023-03-30T05:43:49.495Z,95328.19
2023-03-30T05:46:54.176Z,95328.72
2023-03-30T05:49:42.163Z,95334.91
2023-03-30T05:52:27.588Z,95334.63
2023-03-30T05:55:24.884Z,95337.06
2023-03-30T05:58:21.075Z,95333.28
2023-03-30T06:01:11.968Z,95326.31
2023-03-30T06:03:43.246Z,95316.88
2023-03-30T06:06:13.839Z,95317.44
2023-03-30T06:08:44.107Z,95321.44
2023-03-30T06:11:19.531Z,95305.81
2023-03-30T06:14:00.942Z,95290.78
2023-03-30T06:16:32.740Z,95289.16
2023-03-30T06:19:03.100Z,95282.16
2023-03-30T06:21:32.553Z,95274.09
2023-03-30T06:24:20.734Z,95276.25
2023-03-30T06:26:51.526Z,95273.28
2023-03-30T06:29:21.018Z,95281.88
2023-03-30T06:31:52.314Z,95274.34
2023-03-30T06:34:40.464Z,95265.44
2023-03-30T06:37:10.137Z,95251.69
2023-03-30T06:39:40.022Z,95254.66
2023-03-30T06:42:09.562Z,95246.31
2023-03-30T06:45:10.270Z,95237.16
2023-03-30T06:47:42.300Z,95228.00
2023-03-30T06:50:13.422Z,95224.22
2023-03-30T06:53:01.688Z,95227.19
2023-03-30T06:55:38.314Z,95228.53
2023-03-30T06:58:08.002Z,95227.97
2023-03-30T07:00:38.384Z,95225.00
2023-03-30T07:03:29.961Z,95220.16
2023-03-30T07:06:12.620Z,95219.06
2023-03-30T07:08:42.536Z,95212.53
2023-03-30T07:11:15.133Z,95215.72
2023-03-30T07:13:44.558Z,95208.97
2023-03-30T07:16:14.081Z,95205.16
2023-03-30T07:18:45.532Z,95199.72
2023-03-30T07:21:15.592Z,95209.38
2023-03-30T07:23:45.232Z,95204.78
2023-03-30T07:26:26.967Z,95210.69
2023-03-30T07:29:01.740Z,95208.00
2023-03-30T07:31:31.937Z,95212.06
2023-03-30T07:34:04.226Z,95204.78
2023-03-30T07:36:38.560Z,95199.94
2023-03-30T07:39:09.017Z,95207.22
2023-03-30T07:41:41.211Z,95202.94
2023-03-30T07:44:10.682Z,95178.41
2023-03-30T07:46:41.170Z,95181.91
2023-03-30T07:49:16.993Z,95189.16
2023-03-30T07:51:47.182Z,95193.19
2023-03-30T07:54:23.316Z,95190.47
2023-03-30T07:57:15.811Z,95199.66
2023-03-30T07:59:45.794Z,95203.94
2023-03-30T08:02:27.190Z,95189.97
2023-03-30T08:05:00.173Z,95175.13
2023-03-30T08:07:58.886Z,95182.09
2023-03-30T08:10:33.733Z,95183.66
2023-03-30T08:13:03.473Z,95174.94
2023-03-30T08:15:32.894Z,95180.00
2023-03-30T08:18:04.339Z,95178.88
2023-03-30T08:20:36.254Z,95176.34
2023-03-30T08:23:06.110Z,95170.94
2023-03-30T08:25:36.250Z,95163.88
2023-03-30T08:28:06.795Z,95182.72
2023-03-30T08:30:36.488Z,95186.44
2023-03-30T08:33:06.100Z,95180.25
2023-03-30T08:35:36.974Z,95184.53
2023-03-30T08:38:06.431Z,95191.25
2023-03-30T08:40:40.150Z,95175.09
2023-03-30T08:43:34.700Z,95187.19
2023-03-30T08:46:04.838Z,95189.09
2023-03-30T08:48:37.914Z,95170.44
2023-03-30T08:51:23.357Z,95158.28
2023-03-30T08:53:59.268Z,95174.44
2023-03-30T08:56:31.998Z,95172.94
2023-03-30T08:59:18.564Z,95165.75
2023-03-30T09:01:55.416Z,95181.81
2023-03-30T09:04:40.052Z,95177.59
2023-03-30T09:07:18.668Z,95182.28
2023-03-30T09:09:52.036Z,95175.34
2023-03-30T09:12:34.194Z,95194.88
2023-03-30T09:15:12.921Z,95190.84
2023-03-30T09:17:48.351Z,95196.81
2023-03-30T09:20:24.687Z,95200.47
2023-03-30T09:23:00.188Z,95200.63
2023-03-30T09:25:40.685Z,95191.53
2023-03-30T09:28:20.571Z,95183.22
2023-03-30T09:30:55.713Z,95176.75
2023-03-30T09:33:38.002Z,95183.75
2023-03-30T09:36:17.265Z,95185.53
2023-03-30T09:38:48.687Z,95197.59
2023-03-30T09:41:36.605Z,95181.94
2023-03-30T09:44:22.250Z,95194.84
2023-03-30T09:46:59.545Z,95205.03
2023-03-30T09:49:39.242Z,95213.38
2023-03-30T09:52:20.763Z,95202.09
2023-03-30T09:54:51.498Z,95190.81
2023-03-30T09:57:30.079Z,95206.44
2023-03-30T10:00:02.495Z,95192.81
2023-03-30T10:02:41.462Z,95189.28
2023-03-30T10:05:19.612Z,95193.25
2023-03-30T10:07:56.853Z,95195.22
2023-03-30T10:10:36.115Z,95193.81
2023-03-30T10:13:13.628Z,95203.56
2023-03-30T10:15:48.463Z,95203.06
2023-03-30T10:18:29.359Z,95199.09
2023-03-30T10:21:06.296Z,95207.97
2023-03-30T10:23:41.964Z,95214.19
2023-03-30T10:26:19.289Z,95223.34
2023-03-30T10:28:57.714Z,95231.13
2023-03-30T10:31:28.410Z,95239.66
2023-03-30T10:34:01.194Z,95233.84
2023-03-30T10:36:34.458Z,95249.50
2023-03-30T10:39:13.228Z,95254.41
2023-03-30T10:41:44.584Z,95266.75
2023-03-30T10:44:26.154Z,95274.81
2023-03-30T10:47:18.617Z,95286.47
2023-03-30T10:50:05.888Z,95297.06
2023-03-30T10:52:59.027Z,95301.91
2023-03-30T10:55:41.685Z,95297.44
2023-03-30T10:58:31.739Z,95295.19
2023-03-30T11:01:13.339Z,95305.75
2023-03-30T11:03:52.707Z,95315.03
2023-03-30T11:06:27.995Z,95308.72
2023-03-30T11:09:02.050Z,95324.59
2023-03-30T11:11:40.652Z,95331.47
2023-03-30T11:14:19.171Z,95340.94
2023-03-30T11:16:54.406Z,95340.63
2023-03-30T11:19:30.038Z,95352.22
2023-03-30T11:22:08.690Z,95347.41
2023-03-30T11:24:38.136Z,95350.34
2023-03-30T11:27:18.658Z,95355.94
2023-03-30T11:29:56.789Z,95348.13
2023-03-30T11:32:34.245Z,95353.41
2023-03-30T11:35:14.102Z,95362.72
2023-03-30T11:37:52.179Z,95368.63
2023-03-30T11:40:26.971Z,95386.03
2023-03-30T11:42:57.015Z,95390.44
2023-03-30T11:45:54.103Z,95397.41
2023-03-30T11:49:05.857Z,95418.72
2023-03-30T11:52:00.914Z,95414.25
2023-03-30T11:55:19.457Z,95429.66
2023-03-30T11:58:06.590Z,95421.38
2023-03-30T12:00:51.653Z,95413.84
2023-03-30T12:03:42.229Z,95405.25
2023-03-30T12:06:29.654Z,95420.06
2023-03-30T12:09:26.581Z,95414.97
2023-03-30T12:12:15.797Z,95400.75
2023-03-30T12:15:03.720Z,95385.13
2023-03-30T12:17:50.955Z,95390.28
2023-03-30T12:20:40.399Z,95372.00
2023-03-30T12:23:35.544Z,95363.09
2023-03-30T12:26:26.721Z,95355.88
2023-03-30T12:29:52.454Z,95350.22
2023-03-30T12:32:21.252Z,95341.88
2023-03-30T12:34:52.972Z,95335.13
2023-03-30T12:37:28.859Z,95328.41
2023-03-30T12:40:06.847Z,95330.56
2023-03-30T12:42:46.349Z,95337.28
2023-03-30T12:45:32.718Z,95340.00
2023-03-30T12:48:29.706Z,95337.03
2023-03-30T12:51:14.974Z,95328.69
2023-03-30T12:54:19.261Z,95324.09
2023-03-30T12:56:59.831Z,95331.38
2023-03-30T12:59:53.840Z,95335.97
2023-03-30T13:03:01.856Z,95331.63
2023-03-30T13:05:35.379Z,95337.88
2023-03-30T13:08:10.798Z,95327.59
2023-03-30T13:10:44.469Z,95323.03
2023-03-30T13:13:45.706Z,95328.19
2023-03-30T13:16:15.471Z,95312.84
2023-03-30T13:18:56.379Z,95307.75
2023-03-30T13:21:27.009Z,95314.69
2023-03-30T13:24:28.480Z,95306.94
2023-03-30T13:27:23.489Z,95297.22
2023-03-30T13:29:57.918Z,95300.72
2023-03-30T13:32:43.768Z,95295.91
2023-03-30T13:35:40.674Z,95300.47
2023-03-30T13:38:58.556Z,95307.44
2023-03-30T13:41:52.336Z,95296.41
2023-03-30T13:44:51.829Z,95298.59
2023-03-30T13:47:51.057Z,95309.88
2023-03-30T13:50:26.631Z,95312.53
2023-03-30T13:53:00.628Z,95313.34
2023-03-30T13:55:33.786Z,95304.47
2023-03-30T13:58:08.289Z,95309.59
2023-03-30T14:00:47.232Z,95314.19
2023-03-30T14:03:40.094Z,95318.47
2023-03-30T14:06:19.064Z,95312.31
2023-03-30T14:08:52.305Z,95321.19
2023-03-30T14:11:24.608Z,95323.31
2023-03-30T14:13:56.447Z,95305.03
2023-03-30T14:16:29.350Z,95292.63
2023-03-30T14:19:16.662Z,95298.50
2023-03-30T14:21:48.484Z,95281.78
2023-03-30T14:24:27.701Z,95265.63
2023-03-30T14:27:04.704Z,95252.72
2023-03-30T14:29:44.788Z,95224.63
2023-03-30T14:32:17.187Z,95238.03
2023-03-30T14:34:48.740Z,95238.72
2023-03-30T14:37:21.190Z,95243.38
2023-03-30T14:39:56.499Z,95243.44
2023-03-30T14:42:29.775Z,95231.09
2023-03-30T14:45:01.531Z,95238.81
2023-03-30T14:47:31.354Z,95232.56
2023-03-30T14:50:07.839Z,95237.50
2023-03-30T14:52:42.650Z,95233.75
2023-03-30T14:55:18.842Z,95226.31
2023-03-30T14:57:49.350Z,95223.63
2023-03-30T15:00:24.797Z,95224.22
2023-03-30T15:03:01.045Z,95243.13
2023-03-30T15:05:37.512Z,95239.66
2023-03-30T15:08:26.687Z,95263.41
2023-03-30T15:10:58.558Z,95256.22
2023-03-30T15:13:37.266Z,95248.44
2023-03-30T15:16:09.199Z,95238.75
2023-03-30T15:18:39.061Z,95243.56
2023-03-30T15:21:10.468Z,95240.41
2023-03-30T15:23:44.780Z,95254.28
2023-03-30T15:26:14.685Z,95225.66
2023-03-30T15:28:50.500Z,95234.31
2023-03-30T15:31:21.881Z,95247.13
2023-03-30T15:33:55.829Z,95226.16
2023-03-30T15:36:29.158Z,95224.63
2023-03-30T15:39:00.536Z,95223.41
2023-03-30T15:41:48.176Z,95225.72
2023-03-30T15:44:20.960Z,95267.16
2023-03-30T15:46:57.038Z,95221.78
2023-03-30T15:49:37.396Z,95215.59
2023-03-30T15:52:17.907Z,95217.56
2023-03-30T15:54:53.776Z,95216.25
2023-03-30T15:57:29.501Z,95218.06
2023-03-30T16:00:03.151Z,95219.47
2023-03-30T16:02:48.987Z,95214.50
2023-03-30T16:05:22.980Z,95222.75
2023-03-30T16:07:52.409Z,95224.06
2023-03-30T16:10:26.559Z,95215.00
2023-03-30T16:12:58.854Z,95223.69
2023-03-30T16:15:32.835Z,95231.94
2023-03-30T16:18:03.720Z,95225.53
2023-03-30T16:20:34.853Z,95218.22
2023-03-30T16:23:04.996Z,95225.44
2023-03-30T16:25:44.646Z,95230.78
2023-03-30T16:28:18.600Z,95223.13
2023-03-30T16:30:52.311Z,95224.47
2023-03-30T16:33:24.382Z,95233.97
2023-03-30T16:35:53.939Z,95228.22
2023-03-30T16:38:23.438Z,95228.53
2023-03-30T16:40:56.412Z,95225.66
2023-03-30T16:43:27.218Z,95222.88
2023-03-30T16:45:57.116Z,95239.69
2023-03-30T16:48:28.114Z,95218.09
2023-03-30T16:50:57.717Z,95229.44
2023-03-30T16:53:27.257Z,95216.03
2023-03-30T16:55:56.827Z,95237.91
2023-03-30T16:58:26.330Z,95219.53
2023-03-30T17:01:02.999Z,95229.28
2023-03-30T17:03:34.122Z,95228.56
2023-03-30T17:06:03.558Z,95232.59
2023-03-30T17:08:33.596Z,95239.03
2023-03-30T17:11:05.054Z,95244.94
2023-03-30T17:13:35.128Z,95242.47
2023-03-30T17:16:04.754Z,95248.75
2023-03-30T17:18:35.723Z,95247.63
2023-03-30T17:21:06.628Z,95261.63
2023-03-30T17:23:36.548Z,95268.91
2023-03-30T17:26:07.712Z,95258.38
2023-03-30T17:28:38.355Z,95265.19
2023-03-30T17:31:16.333Z,95263.28
2023-03-30T17:33:48.987Z,95252.31
2023-03-30T17:36:21.163Z,95246.94
2023-03-30T17:38:52.333Z,95252.97
2023-03-30T17:41:22.306Z,95248.41
2023-03-30T17:43:51.870Z,95254.13
2023-03-30T17:46:21.823Z,95254.97
2023-03-30T17:48:52.701Z,95255.72
2023-03-30T17:51:22.118Z,95258.47
2023-03-30T17:53:51.538Z,95261.19
2023-03-30T17:56:20.929Z,95262.63
2023-03-30T17:58:53.090Z,95261.00
2023-03-30T18:01:22.549Z,95254.78
2023-03-30T18:03:53.476Z,95247.78
2023-03-30T18:06:22.988Z,95250.53
2023-03-30T18:08:52.436Z,95249.97
2023-03-30T18:11:22.628Z,95245.69
2023-03-30T18:13:53.784Z,95255.94
2023-03-30T18:16:24.826Z,95269.69
2023-03-30T18:18:57.805Z,95273.47
2023-03-30T18:21:28.205Z,95277.78
2023-03-30T18:23:57.971Z,95281.88
2023-03-30T18:26:27.537Z,95276.81
2023-03-30T18:28:56.909Z,95279.25
2023-03-30T18:31:26.304Z,95285.47
2023-03-30T18:33:57.156Z,95287.06
2023-03-30T18:36:26.542Z,95295.97
2023-03-30T18:38:56.025Z,95296.31
2023-03-30T18:41:25.886Z,95307.00
2023-03-30T18:43:55.328Z,95297.91
2023-03-30T18:46:24.733Z,95294.97
2023-03-30T18:48:54.245Z,95313.00
2023-03-30T18:51:25.048Z,95303.88
2023-03-30T18:53:54.574Z,95298.78
2023-03-30T18:56:24.335Z,95305.22
2023-03-30T18:58:53.734Z,95302.88
2023-03-30T19:01:23.184Z,95302.84
2023-03-30T19:03:52.584Z,95315.72
2023-03-30T19:06:24.577Z,95310.34
2023-03-30T19:08:53.989Z,95319.50
2023-03-30T19:11:27.297Z,95326.25
2023-03-30T19:14:00.243Z,95335.13
2023-03-30T19:16:29.605Z,95340.78
2023-03-30T19:18:58.863Z,95342.94
2023-03-30T19:21:29.676Z,95349.13
2023-03-30T19:23:59.071Z,95346.69
2023-03-30T19:26:28.504Z,95351.03
2023-03-30T19:28:57.928Z,95341.88
2023-03-30T19:31:27.424Z,95342.41
2023-03-30T19:33:56.946Z,95344.84
2023-03-30T19:36:26.378Z,95358.78
2023-03-30T19:38:57.154Z,95400.47
2023-03-30T19:41:27.115Z,95407.47
2023-03-30T19:43:56.560Z,95391.09
2023-03-30T19:46:26.045Z,95402.94
2023-03-30T19:48:55.474Z,95394.31
2023-03-30T19:51:24.912Z,95388.69
2023-03-30T19:53:56.940Z,95396.19
2023-03-30T19:56:26.652Z,95399.66
2023-03-30T19:58:56.096Z,95402.31
2023-03-30T20:01:25.844Z,95395.59
2023-03-30T20:03:55.367Z,95406.09
2023-03-30T20:06:24.915Z,95385.66
2023-03-30T20:08:56.494Z,95382.97
2023-03-30T20:11:26.077Z,95367.94
2023-03-30T20:13:55.526Z,95372.47
2023-03-30T20:16:25.937Z,95372.16
2023-03-30T20:18:57.679Z,95367.91
2023-03-30T20:21:27.723Z,95369.19
2023-03-30T20:23:59.912Z,95372.38
2023-03-30T20:26:30.722Z,95367.53
2023-03-30T20:29:00.822Z,95376.66
2023-03-30T20:31:31.320Z,95370.47
2023-03-30T20:34:00.850Z,95369.66
2023-03-30T20:36:30.346Z,95357.31
2023-03-30T20:39:01.233Z,95346.31
2023-03-30T20:41:38.147Z,95356.78
2023-03-30T20:44:12.244Z,95348.97
2023-03-30T20:46:43.418Z,95349.50
2023-03-30T20:49:14.013Z,95350.84
2023-03-30T20:51:45.126Z,95349.47
2023-03-30T20:54:15.981Z,95348.94
2023-03-30T20:56:45.769Z,95342.75
2023-03-30T20:59:15.368Z,95343.56
2023-03-30T21:01:47.165Z,95346.25
2023-03-30T21:04:17.158Z,95347.84
2023-03-30T21:06:46.903Z,95334.44
2023-03-30T21:09:18.611Z,95340.03
2023-03-30T21:11:48.412Z,95334.38
2023-03-30T21:14:17.857Z,95340.81
2023-03-30T21:16:47.258Z,95331.41
2023-03-30T21:19:16.776Z,95330.81
2023-03-30T21:21:46.387Z,95336.44
2023-03-30T21:24:18.494Z,95327.03
2023-03-30T21:26:47.938Z,95322.78
2023-03-30T21:29:17.560Z,95318.00
2023-03-30T21:31:47.072Z,95316.38
2023-03-30T21:34:18.618Z,95312.81
2023-03-30T21:36:48.201Z,95313.09
2023-03-30T21:39:19.229Z,95306.63
2023-03-30T21:41:48.638Z,95306.84
2023-03-30T21:44:18.089Z,95300.66
2023-03-30T21:46:47.595Z,95303.28
2023-03-30T21:49:17.160Z,95297.09
2023-03-30T21:51:46.902Z,95299.50
2023-03-30T21:54:19.181Z,95299.19
2023-03-30T21:56:48.671Z,95298.03
2023-03-30T21:59:18.824Z,95292.13
2023-03-30T22:01:48.266Z,95299.25
2023-03-30T22:04:17.686Z,95282.34
2023-03-30T22:06:47.663Z,95288.47
2023-03-30T22:09:18.418Z,95288.41
2023-03-30T22:11:47.826Z,95288.06
2023-03-30T22:14:17.242Z,95285.28
2023-03-30T22:16:46.818Z,95283.34
2023-03-30T22:19:18.475Z,95274.97
2023-03-30T22:21:48.049Z,95266.59
2023-03-30T22:24:20.144Z,95269.19
2023-03-30T22:26:49.890Z,95273.97
2023-03-30T22:29:20.824Z,95276.03
2023-03-30T22:31:51.575Z,95270.31
2023-03-30T22:34:21.051Z,95265.75
2023-03-30T22:36:50.537Z,95263.31
2023-03-30T22:39:21.309Z,95266.44
2023-03-30T22:41:50.752Z,95261.59
2023-03-30T22:44:21.338Z,95248.16
2023-03-30T22:46:50.809Z,95250.84
2023-03-30T22:49:20.242Z,95250.91
2023-03-30T22:51:53.047Z,95244.19
2023-03-30T22:54:24.498Z,95238.34
2023-03-30T22:56:53.947Z,95227.41
2023-03-30T22:59:23.398Z,95220.69
2023-03-30T23:01:53.104Z,95227.91
2023-03-30T23:04:24.675Z,95220.06
2023-03-30T23:06:54.798Z,95221.59
2023-03-30T23:09:28.588Z,95216.44
2023-03-30T23:11:57.993Z,95218.50
2023-03-30T23:14:27.682Z,95212.59
2023-03-30T23:16:57.806Z,95204.44
2023-03-30T23:19:29.246Z,95203.78
2023-03-30T23:21:58.804Z,95194.22
2023-03-30T23:24:29.616Z,95202.03
2023-03-30T23:26:59.016Z,95196.44
2023-03-30T23:29:28.689Z,95193.19
2023-03-30T23:31:58.271Z,95189.41
2023-03-30T23:34:27.668Z,95193.34
2023-03-30T23:36:59.569Z,95187.94
2023-03-30T23:39:31.603Z,95180.44
2023-03-30T23:42:01.311Z,95171.06
2023-03-30T23:44:30.962Z,95169.44
2023-03-30T23:47:00.686Z,95177.97
2023-03-30T23:49:30.129Z,95175.25
2023-03-30T23:51:59.551Z,95169.09
2023-03-30T23:54:31.528Z,95171.44
2023-03-30T23:57:01.835Z,95163.75
2023-03-30T23:59:31.422Z,95152.25
